Timber Mountain, Nevada Weather observations

Data are for 10 minute period ending at time listed.
 Day   Time   Solar   Ave.   Ave.  Ave.  Vector  Max.   Baro.   Total    
  of    of     Rad.   Air    Rel.  Wind   Wind   Wind  Press.  Precip.   
Year   Day            Temp.  Hum.  Speed  Dir.   Gust                    
2015   (PST)  Kw/m2    F      %     mph   deg.    mph    mb.     in.     
-------------------------------------------------------------------------
 239    0:00   0.00   65.6    51   10.7   104    15.6   817.3    0.00 
 239    1:00   0.00   64.3    56   10.2   105    14.2   817.5    0.00 
 239    2:00   0.00   63.0    61    9.3   110    14.8   817.5    0.00 
 239    3:00   0.00   61.6    65    6.7   116     9.9   817.3    0.00 
 239    4:00   0.00   61.0    67    6.6   116     9.2   817.4    0.00 
 239    5:00   0.00   60.3    68    7.0   122     9.1   817.6    0.00 
 239    6:00   0.01   61.1    66    5.2   125     7.8   817.8    0.00 
 239    7:00   0.20   69.6    50    3.9   105    13.4   818.3    0.00 
 239    8:00   0.38   74.0    42    6.5   135    15.2   818.8    0.00 
 239    9:00   0.62   77.0    36    6.1   233    13.7   819.2    0.00 
 239   10:00   0.79   79.1    32    6.3   228    15.8   819.3    0.00 
 239   11:00   0.90   81.1    28    6.4   235    16.8   819.2    0.00 
 239   12:00   0.97   82.8    21    7.8   221    16.1   818.7    0.00 
 239   13:00   0.97   84.2    18    6.6   232    18.9   818.1    0.00 
 239   14:00   0.91   85.2    17    7.9   227    18.0   817.3    0.00 
 239   15:00   0.74   85.6    16    7.4   253    19.4   816.6    0.00 
 239   16:00   0.60   85.5    18    6.8   243    16.1   816.2    0.00 
 239   17:00   0.36   84.6    18    6.8   230    20.0   816.0    0.00 
 239   18:00   0.12   81.8    19    7.6   240    14.5   815.7    0.00 
 239   19:00   0.01   77.6    21    3.9   212    13.6   815.9    0.00 
 239   20:00   0.00   71.9    26    5.3   130     9.2   816.5    0.00 
 239   21:00   0.00   69.7    33    5.9   105     8.6   817.0    0.00 
 239   22:00   0.00   67.2    38    5.3   108     7.9   816.8    0.00 

Return to Timber Mountain graphs page.


Western Regional Climate Center,wrcc@dri.edu